Vg 117 Kungsvik — SBTH — position and weather

sailwx.info

Track history (hours):
 
Tides and Currents Weather Stations Pressure Air Temp Water Temp Dewpoint Dewpoint Depression Visibility Wind Speed Wind Dir Waves Ship Positions

Vg 117 Kungsvik

Last reported at 2015-Feb-28 20:27 UTC. Time now 2015-Feb-28 20:43 UTC.
Position N 55°33' E 014°22'.

Length 17 m.

Type: Fishing. MMSI: 266137000.

Date/timePositionNaut miles runAvg speedWind from/ knotsBaromVisibWave heightAir tempDewpointWater temp
2015-Feb-28 20:27N 55°33' E 014°22'0 0.0
2015-Feb-28 19:15N 55°33' E 014°22'0 0.0
2015-Feb-28 18:27N 55°33' E 014°22'0 0.0
2015-Feb-28 17:03N 55°33' E 014°22'0 0.0
2015-Feb-28 16:27N 55°33' E 014°22'0 0.0
2015-Feb-28 15:27N 55°33' E 014°22'0 0.0
2015-Feb-28 14:09N 55°33' E 014°22'0 0.0
2015-Feb-28 13:27N 55°33' E 014°22'0 0.0
2015-Feb-28 12:15N 55°33' E 014°22'0 0.0
2015-Feb-28 11:27N 55°33' E 014°22'0 0.0
2015-Feb-28 01:15N 55°33' E 014°22'0 0.0
2015-Feb-27 23:33N 55°33' E 014°22'0 0.0
2015-Feb-27 22:21N 55°33' E 014°22'0 0.0
2015-Feb-27 21:27N 55°33' E 014°22'0 0.0
2015-Feb-27 20:27N 55°33' E 014°22'0 0.0
2015-Feb-27 19:33N 55°33' E 014°22'0 0.0
2015-Feb-27 18:21N 55°33' E 014°22'0 0.0
2015-Feb-27 17:21N 55°33' E 014°22'0 0.0
2015-Feb-27 16:33N 55°33' E 014°22'0 0.0
2015-Feb-27 15:27N 55°33' E 014°22'0 0.0
2015-Feb-27 14:15N 55°33' E 014°22'0 0.0
2015-Feb-27 13:27N 55°33' E 014°22'0 0.0
2015-Feb-27 12:27N 55°33' E 014°22'0 0.0
2015-Feb-27 11:09N 55°33' E 014°22'0 0.0
2015-Feb-27 10:33N 55°33' E 014°22'0 0.0
2015-Feb-27 09:27N 55°33' E 014°22'0 0.0
2015-Feb-27 07:09N 55°33' E 014°22'0 0.0
2015-Feb-27 06:09N 55°33' E 014°22'0 0.0
2015-Feb-27 05:33N 55°33' E 014°22'0 0.0
2015-Feb-27 04:15N 55°33' E 014°22'0 0.0
2015-Feb-27 03:27N 55°33' E 014°22'0 0.0
2015-Feb-27 01:33N 55°33' E 014°22'0 0.0
2015-Feb-27 00:33N 55°33' E 014°22'0 0.0
2015-Feb-26 23:33N 55°33' E 014°22'0 0.0
2015-Feb-26 22:33N 55°33' E 014°22'0 0.0
2015-Feb-26 21:21N 55°33' E 014°22'0 0.0
2015-Feb-26 20:27N 55°33' E 014°22'0 0.0
2015-Feb-26 19:27N 55°33' E 014°22'0 0.1
2015-Feb-26 18:32N 55°33' E 014°21'5 5.4
2015-Feb-26 17:32N 55°28' E 014°21'8 7.6
2015-Feb-26 16:31N 55°21' E 014°16'7 7.5
2015-Feb-26 15:33N 55°14' E 014°11'4 4.1
2015-Feb-26 14:33N 55°10' E 014°08'3 2.9
2015-Feb-26 13:33N 55°09' E 014°03'3 2.9
2015-Feb-26 12:32N 55°10' E 013°58'4 2.5
2015-Feb-26 11:04N 55°09' E 013°52'2 3.1
2015-Feb-26 10:32N 55°09' E 013°49'3 2.0
2015-Feb-26 09:08N 55°08' E 013°45'2 2.7
2015-Feb-26 08:31N 55°10' E 013°46'3 3.0
2015-Feb-26 07:33N 55°10' E 013°41'26 4.4
2015-Feb-26 01:32N 55°15' E 012°55'8 7.6
2015-Feb-26 00:33N 55°17' E 012°43'7 6.5
2015-Feb-25 23:31N 55°23' E 012°39'7 7.3
2015-Feb-25 22:32N 55°30' E 012°44'7 6.9
2015-Feb-25 21:34N 55°35' E 012°51'6 6.0
2015-Feb-25 20:33N 55°41' E 012°55'7 7.2
2015-Feb-25 19:33N 55°47' E 012°48'7 7.2
2015-Feb-25 18:32N 55°54' E 012°44'7 7.2
2015-Feb-25 17:33N 56°01' E 012°40'6 6.2
2015-Feb-25 16:33N 56°06' E 012°33'6 5.7
2015-Feb-25 15:33N 56°11' E 012°29'7 7.2
2015-Feb-25 14:32N 56°18' E 012°26'8 7.6
2015-Feb-25 13:26N 56°26' E 012°23'15 7.7
2015-Feb-25 11:32N 56°41' E 012°20'7 7.2
2015-Feb-25 10:33N 56°48' E 012°19'7 7.1
2015-Feb-25 09:33N 56°55' E 012°17'7 6.8
2015-Feb-25 08:30N 57°02' E 012°15'2 1.8
2015-Feb-25 07:26N 57°04' E 012°16'0 0.0
2015-Feb-25 06:33N 57°04' E 012°16'0 0.0
2015-Feb-25 05:33N 57°04' E 012°16'0 0.0
2015-Feb-25 04:33N 57°04' E 012°16'0 0.0
2015-Feb-25 03:15N 57°04' E 012°16'0 0.0
2015-Feb-25 02:27N 57°04' E 012°16'0 0.0
2015-Feb-25 01:21N 57°04' E 012°16'0 0.0
2015-Feb-25 00:33N 57°04' E 012°16'0 0.0
2015-Feb-24 23:27N 57°04' E 012°16'0 0.0
2015-Feb-24 22:27N 57°04' E 012°16'0 0.0
2015-Feb-24 21:33N 57°04' E 012°16'0 0.0
2015-Feb-24 20:09N 57°04' E 012°16'0 0.0
2015-Feb-24 19:27N 57°04' E 012°16'0 0.0
2015-Feb-24 18:27N 57°04' E 012°16'0 0.0
2015-Feb-24 17:27N 57°04' E 012°16'0 0.0
2015-Feb-24 16:33N 57°04' E 012°16'0 0.0
2015-Feb-24 15:21N 57°04' E 012°16'0 0.0
2015-Feb-24 14:33N 57°04' E 012°16'0 0.0
2015-Feb-24 13:33N 57°04' E 012°16'0 0.0
2015-Feb-24 12:33N 57°04' E 012°16'0 0.0
2015-Feb-24 11:27N 57°04' E 012°16'0 0.0
2015-Feb-24 10:33N 57°04' E 012°16'0 0.0
2015-Feb-24 09:27N 57°04' E 012°16'0 0.0
2015-Feb-24 07:27N 57°04' E 012°16'0 0.0
2015-Feb-24 06:33N 57°04' E 012°16'0 0.0
2015-Feb-24 05:21N 57°04' E 012°16'0 0.0
2015-Feb-24 03:27N 57°04' E 012°16'0 0.0
2015-Feb-24 02:33N 57°04' E 012°16'0 0.0
2015-Feb-24 01:33N 57°04' E 012°16'0 0.0
2015-Feb-24 00:33N 57°04' E 012°16'0 0.0
2015-Feb-23 23:33N 57°04' E 012°16'0 0.0
2015-Feb-23 22:33N 57°04' E 012°16'0 0.0
2015-Feb-23 21:33N 57°04' E 012°16'0 0.0
2015-Feb-23 20:33N 57°04' E 012°16'0 0.0
2015-Feb-23 19:33N 57°04' E 012°16'0 0.0
2015-Feb-23 18:33N 57°04' E 012°16'0 0.0
2015-Feb-23 17:21N 57°04' E 012°16'0 0.0
2015-Feb-23 16:33N 57°04' E 012°16'0 0.0
2015-Feb-23 15:27N 57°04' E 012°16'0 0.0
2015-Feb-23 14:33N 57°04' E 012°16'0 0.0
2015-Feb-23 13:33N 57°04' E 012°16'0 0.0
2015-Feb-23 12:33N 57°04' E 012°16'0 0.0
2015-Feb-23 11:33N 57°04' E 012°16'0 0.0
2015-Feb-23 10:33N 57°04' E 012°16'0 0.0
2015-Feb-23 09:33N 57°04' E 012°16'0 0.0
2015-Feb-23 08:33N 57°04' E 012°16'0 0.0
2015-Feb-23 07:27N 57°04' E 012°16'0 0.0
2015-Feb-23 06:27N 57°04' E 012°16'0 0.0
2015-Feb-23 05:33N 57°04' E 012°16'0 0.0
2015-Feb-23 04:27N 57°04' E 012°16'0 0.0
2015-Feb-23 03:33N 57°04' E 012°16'0 0.0
2015-Feb-23 02:33N 57°04' E 012°16'0 0.0
2015-Feb-23 01:33N 57°04' E 012°16'0 0.0
2015-Feb-23 00:21N 57°04' E 012°16'0 0.0
2015-Feb-22 23:27N 57°04' E 012°16'0 0.0
2015-Feb-22 22:33N 57°04' E 012°16'0 0.0
2015-Feb-22 21:15N 57°04' E 012°16'0 0.0
2015-Feb-22 20:15N 57°04' E 012°16'0 0.0
2015-Feb-22 19:33N 57°04' E 012°16'0 0.0
2015-Feb-22 18:27N 57°04' E 012°16'0 0.0
2015-Feb-22 17:27N 57°04' E 012°16'0 0.0
2015-Feb-22 16:21N 57°04' E 012°16'0 0.0
2015-Feb-22 15:33N 57°04' E 012°16'0 0.0
2015-Feb-22 14:33N 57°04' E 012°16'0 0.0
2015-Feb-22 13:33N 57°04' E 012°16'0 0.0
2015-Feb-22 12:27N 57°04' E 012°16'0 0.0
2015-Feb-22 11:33N 57°04' E 012°16'0 0.0
2015-Feb-22 10:33N 57°04' E 012°16'0 0.0
2015-Feb-22 09:33N 57°04' E 012°16'0 0.0
2015-Feb-22 08:27N 57°04' E 012°16'0 0.0
2015-Feb-22 07:21N 57°04' E 012°16'0 0.0
2015-Feb-22 06:33N 57°04' E 012°16'0 0.0
2015-Feb-22 05:33N 57°04' E 012°16'0 0.0
2015-Feb-22 04:27N 57°04' E 012°16'0 0.0
2015-Feb-22 02:15N 57°04' E 012°16'0 0.0
2015-Feb-22 01:27N 57°04' E 012°16'0 0.0
2015-Feb-22 00:33N 57°04' E 012°16'0 0.0
2015-Feb-21 23:27N 57°04' E 012°16'0 0.0
2015-Feb-21 22:33N 57°04' E 012°16'0 0.0
2015-Feb-21 21:27N 57°04' E 012°16'0 0.0
2015-Feb-21 20:33N 57°04' E 012°16'0 0.0
2015-Feb-21 19:33N 57°04' E 012°16'0 0.0
2015-Feb-21 18:27N 57°04' E 012°16'0 0.0
2015-Feb-21 17:21N 57°04' E 012°16'0 0.0
2015-Feb-21 16:33N 57°04' E 012°16'0 0.0
2015-Feb-21 15:21N 57°04' E 012°16'0 0.0
2015-Feb-21 14:33N 57°04' E 012°16'0 0.0
2015-Feb-21 13:27N 57°04' E 012°16'0 0.0
2015-Feb-21 12:33N 57°04' E 012°16'0 0.0
2015-Feb-21 11:33N 57°04' E 012°16'0 0.0
2015-Feb-21 10:33N 57°04' E 012°16'0 0.0
2015-Feb-21 09:33N 57°04' E 012°16'0 0.0
2015-Feb-21 08:27N 57°04' E 012°16'0 0.0
2015-Feb-21 07:15N 57°04' E 012°16'0 0.0
2015-Feb-21 06:27N 57°04' E 012°16'0 0.0
2015-Feb-21 05:33N 57°04' E 012°16'0 0.0
2015-Feb-21 04:33N 57°04' E 012°16'0 0.0
2015-Feb-21 03:33N 57°04' E 012°16'0 0.0
2015-Feb-21 02:33N 57°04' E 012°16'0 0.0
2015-Feb-21 01:21N 57°04' E 012°16'0 0.0
2015-Feb-21 00:21N 57°04' E 012°16'0 0.0
2015-Feb-20 23:33N 57°04' E 012°16'0 0.0
2015-Feb-20 22:27N 57°04' E 012°16'0 0.0
2015-Feb-20 21:33N 57°04' E 012°16'0 0.0
2015-Feb-20 20:09N 57°04' E 012°16'0 0.0
2015-Feb-20 19:27N 57°04' E 012°16'0 0.0
2015-Feb-20 18:33N 57°04' E 012°16'0 0.0
2015-Feb-20 17:33N 57°04' E 012°16'0 0.0
2015-Feb-20 16:33N 57°04' E 012°16'0 0.0
2015-Feb-20 15:09N 57°04' E 012°16'0 0.0
2015-Feb-20 14:09N 57°04' E 012°16'0 0.0
2015-Feb-20 13:33N 57°04' E 012°16'0 0.0
2015-Feb-20 12:15N 57°04' E 012°16'0 0.0
2015-Feb-20 11:33N 57°04' E 012°16'0 0.0
2015-Feb-20 10:27N 57°04' E 012°16'0 0.0
2015-Feb-20 09:33N 57°04' E 012°16'0 0.0
2015-Feb-20 08:33N 57°04' E 012°16'0 0.0
2015-Feb-20 07:33N 57°04' E 012°16'0 0.0
2015-Feb-20 06:33N 57°04' E 012°16'0 0.0
2015-Feb-20 05:15N 57°04' E 012°16'0 0.0
2015-Feb-20 04:33N 57°04' E 012°16'0 0.0
2015-Feb-20 03:33N 57°04' E 012°16'0 0.0
2015-Feb-20 02:09N 57°04' E 012°16'0 0.0
2015-Feb-20 01:27N 57°04' E 012°16'0 0.0
2015-Feb-20 00:27N 57°04' E 012°16'0 0.0
2015-Feb-19 23:33N 57°04' E 012°16'0 0.0
2015-Feb-19 22:15N 57°04' E 012°16'0 0.0
2015-Feb-19 21:33N 57°04' E 012°16'0 0.0
2015-Feb-19 20:27N 57°04' E 012°16'0 0.0
2015-Feb-19 19:21N 57°04' E 012°16'0 0.0
2015-Feb-19 18:27N 57°04' E 012°16'0 0.0
2015-Feb-19 17:33N 57°04' E 012°16'0 0.0
2015-Feb-19 16:27N 57°04' E 012°16'0 0.0
2015-Feb-19 14:21N 57°04' E 012°16'0 0.0
2015-Feb-19 13:33N 57°04' E 012°16'0 0.0
2015-Feb-19 12:33N 57°04' E 012°16'0 0.0
2015-Feb-19 11:27N 57°04' E 012°16'0 0.0
2015-Feb-19 10:33N 57°04' E 012°16'0 0.0
2015-Feb-19 09:33N 57°04' E 012°16'0 0.0
2015-Feb-19 08:27N 57°04' E 012°16'0 0.0
2015-Feb-19 07:33N 57°04' E 012°16'0 0.0
2015-Feb-19 06:33N 57°04' E 012°16'0 0.0
2015-Feb-19 05:33N 57°04' E 012°16'0 0.0
2015-Feb-19 04:33N 57°04' E 012°16'0 0.0
2015-Feb-19 03:33N 57°04' E 012°16'0 0.0
2015-Feb-19 02:27N 57°04' E 012°16'0 0.0
2015-Feb-19 01:27N 57°04' E 012°16'0 0.0
2015-Feb-19 00:33N 57°04' E 012°16'0 0.0
2015-Feb-18 23:28N 57°04' E 012°16'0 0.0
2015-Feb-18 22:16N 57°04' E 012°16'0 0.0
2015-Feb-18 21:28N 57°04' E 012°16'  
Track history (hours):
 
Tides and Currents Weather Stations Pressure Air Temp Water Temp Dewpoint Dewpoint Depression Visibility Wind Speed Wind Dir Waves Ship Positions

Vg 117 Kungsvik

Last reported at 2015-Feb-28 20:27 UTC. Time now 2015-Feb-28 20:43 UTC.
Position N 55°33' E 014°22'.

Length 17 m.

Type: Fishing. MMSI: 266137000.

Date/timePositionNaut miles runAvg speedWind from/ knotsBaromVisibWave heightAir tempDewpointWater temp
2015-Feb-28 20:27N 55°33' E 014°22'0 0.0
2015-Feb-28 19:15N 55°33' E 014°22'0 0.0
2015-Feb-28 18:27N 55°33' E 014°22'0 0.0
2015-Feb-28 17:03N 55°33' E 014°22'0 0.0
2015-Feb-28 16:27N 55°33' E 014°22'0 0.0
2015-Feb-28 15:27N 55°33' E 014°22'0 0.0
2015-Feb-28 14:09N 55°33' E 014°22'0 0.0
2015-Feb-28 13:27N 55°33' E 014°22'0 0.0
2015-Feb-28 12:15N 55°33' E 014°22'0 0.0
2015-Feb-28 11:27N 55°33' E 014°22'0 0.0
2015-Feb-28 01:15N 55°33' E 014°22'0 0.0
2015-Feb-27 23:33N 55°33' E 014°22'0 0.0
2015-Feb-27 22:21N 55°33' E 014°22'0 0.0
2015-Feb-27 21:27N 55°33' E 014°22'0 0.0
2015-Feb-27 20:27N 55°33' E 014°22'0 0.0
2015-Feb-27 19:33N 55°33' E 014°22'0 0.0
2015-Feb-27 18:21N 55°33' E 014°22'0 0.0
2015-Feb-27 17:21N 55°33' E 014°22'0 0.0
2015-Feb-27 16:33N 55°33' E 014°22'0 0.0
2015-Feb-27 15:27N 55°33' E 014°22'0 0.0
2015-Feb-27 14:15N 55°33' E 014°22'0 0.0
2015-Feb-27 13:27N 55°33' E 014°22'0 0.0
2015-Feb-27 12:27N 55°33' E 014°22'0 0.0
2015-Feb-27 11:09N 55°33' E 014°22'0 0.0
2015-Feb-27 10:33N 55°33' E 014°22'0 0.0
2015-Feb-27 09:27N 55°33' E 014°22'0 0.0
2015-Feb-27 07:09N 55°33' E 014°22'0 0.0
2015-Feb-27 06:09N 55°33' E 014°22'0 0.0
2015-Feb-27 05:33N 55°33' E 014°22'0 0.0
2015-Feb-27 04:15N 55°33' E 014°22'0 0.0
2015-Feb-27 03:27N 55°33' E 014°22'0 0.0
2015-Feb-27 01:33N 55°33' E 014°22'0 0.0
2015-Feb-27 00:33N 55°33' E 014°22'0 0.0
2015-Feb-26 23:33N 55°33' E 014°22'0 0.0
2015-Feb-26 22:33N 55°33' E 014°22'0 0.0
2015-Feb-26 21:21N 55°33' E 014°22'0 0.0
2015-Feb-26 20:27N 55°33' E 014°22'0 0.0
2015-Feb-26 19:27N 55°33' E 014°22'0 0.1
2015-Feb-26 18:32N 55°33' E 014°21'5 5.4
2015-Feb-26 17:32N 55°28' E 014°21'8 7.6
2015-Feb-26 16:31N 55°21' E 014°16'7 7.5
2015-Feb-26 15:33N 55°14' E 014°11'4 4.1
2015-Feb-26 14:33N 55°10' E 014°08'3 2.9
2015-Feb-26 13:33N 55°09' E 014°03'3 2.9
2015-Feb-26 12:32N 55°10' E 013°58'4 2.5
2015-Feb-26 11:04N 55°09' E 013°52'2 3.1
2015-Feb-26 10:32N 55°09' E 013°49'3 2.0
2015-Feb-26 09:08N 55°08' E 013°45'2 2.7
2015-Feb-26 08:31N 55°10' E 013°46'3 3.0
2015-Feb-26 07:33N 55°10' E 013°41'26 4.4
2015-Feb-26 01:32N 55°15' E 012°55'8 7.6
2015-Feb-26 00:33N 55°17' E 012°43'7 6.5
2015-Feb-25 23:31N 55°23' E 012°39'7 7.3
2015-Feb-25 22:32N 55°30' E 012°44'7 6.9
2015-Feb-25 21:34N 55°35' E 012°51'6 6.0
2015-Feb-25 20:33N 55°41' E 012°55'7 7.2
2015-Feb-25 19:33N 55°47' E 012°48'7 7.2
2015-Feb-25 18:32N 55°54' E 012°44'7 7.2
2015-Feb-25 17:33N 56°01' E 012°40'6 6.2
2015-Feb-25 16:33N 56°06' E 012°33'6 5.7
2015-Feb-25 15:33N 56°11' E 012°29'7 7.2
2015-Feb-25 14:32N 56°18' E 012°26'8 7.6
2015-Feb-25 13:26N 56°26' E 012°23'15 7.7
2015-Feb-25 11:32N 56°41' E 012°20'7 7.2
2015-Feb-25 10:33N 56°48' E 012°19'7 7.1
2015-Feb-25 09:33N 56°55' E 012°17'7 6.8
2015-Feb-25 08:30N 57°02' E 012°15'2 1.8
2015-Feb-25 07:26N 57°04' E 012°16'0 0.0
2015-Feb-25 06:33N 57°04' E 012°16'0 0.0
2015-Feb-25 05:33N 57°04' E 012°16'0 0.0
2015-Feb-25 04:33N 57°04' E 012°16'0 0.0
2015-Feb-25 03:15N 57°04' E 012°16'0 0.0
2015-Feb-25 02:27N 57°04' E 012°16'0 0.0
2015-Feb-25 01:21N 57°04' E 012°16'0 0.0
2015-Feb-25 00:33N 57°04' E 012°16'0 0.0
2015-Feb-24 23:27N 57°04' E 012°16'0 0.0
2015-Feb-24 22:27N 57°04' E 012°16'0 0.0
2015-Feb-24 21:33N 57°04' E 012°16'0 0.0
2015-Feb-24 20:09N 57°04' E 012°16'0 0.0
2015-Feb-24 19:27N 57°04' E 012°16'0 0.0
2015-Feb-24 18:27N 57°04' E 012°16'0 0.0
2015-Feb-24 17:27N 57°04' E 012°16'0 0.0
2015-Feb-24 16:33N 57°04' E 012°16'0 0.0
2015-Feb-24 15:21N 57°04' E 012°16'0 0.0
2015-Feb-24 14:33N 57°04' E 012°16'0 0.0
2015-Feb-24 13:33N 57°04' E 012°16'0 0.0
2015-Feb-24 12:33N 57°04' E 012°16'0 0.0
2015-Feb-24 11:27N 57°04' E 012°16'0 0.0
2015-Feb-24 10:33N 57°04' E 012°16'0 0.0
2015-Feb-24 09:27N 57°04' E 012°16'0 0.0
2015-Feb-24 07:27N 57°04' E 012°16'0 0.0
2015-Feb-24 06:33N 57°04' E 012°16'0 0.0
2015-Feb-24 05:21N 57°04' E 012°16'0 0.0
2015-Feb-24 03:27N 57°04' E 012°16'0 0.0
2015-Feb-24 02:33N 57°04' E 012°16'0 0.0
2015-Feb-24 01:33N 57°04' E 012°16'0 0.0
2015-Feb-24 00:33N 57°04' E 012°16'0 0.0
2015-Feb-23 23:33N 57°04' E 012°16'0 0.0
2015-Feb-23 22:33N 57°04' E 012°16'0 0.0
2015-Feb-23 21:33N 57°04' E 012°16'0 0.0
2015-Feb-23 20:33N 57°04' E 012°16'0 0.0
2015-Feb-23 19:33N 57°04' E 012°16'0 0.0
2015-Feb-23 18:33N 57°04' E 012°16'0 0.0
2015-Feb-23 17:21N 57°04' E 012°16'0 0.0
2015-Feb-23 16:33N 57°04' E 012°16'0 0.0
2015-Feb-23 15:27N 57°04' E 012°16'0 0.0
2015-Feb-23 14:33N 57°04' E 012°16'0 0.0
2015-Feb-23 13:33N 57°04' E 012°16'0 0.0
2015-Feb-23 12:33N 57°04' E 012°16'0 0.0
2015-Feb-23 11:33N 57°04' E 012°16'0 0.0
2015-Feb-23 10:33N 57°04' E 012°16'0 0.0
2015-Feb-23 09:33N 57°04' E 012°16'0 0.0
2015-Feb-23 08:33N 57°04' E 012°16'0 0.0
2015-Feb-23 07:27N 57°04' E 012°16'0 0.0
2015-Feb-23 06:27N 57°04' E 012°16'0 0.0
2015-Feb-23 05:33N 57°04' E 012°16'0 0.0
2015-Feb-23 04:27N 57°04' E 012°16'0 0.0
2015-Feb-23 03:33N 57°04' E 012°16'0 0.0
2015-Feb-23 02:33N 57°04' E 012°16'0 0.0
2015-Feb-23 01:33N 57°04' E 012°16'0 0.0
2015-Feb-23 00:21N 57°04' E 012°16'0 0.0
2015-Feb-22 23:27N 57°04' E 012°16'0 0.0
2015-Feb-22 22:33N 57°04' E 012°16'0 0.0
2015-Feb-22 21:15N 57°04' E 012°16'0 0.0
2015-Feb-22 20:15N 57°04' E 012°16'0 0.0
2015-Feb-22 19:33N 57°04' E 012°16'0 0.0
2015-Feb-22 18:27N 57°04' E 012°16'0 0.0
2015-Feb-22 17:27N 57°04' E 012°16'0 0.0
2015-Feb-22 16:21N 57°04' E 012°16'0 0.0
2015-Feb-22 15:33N 57°04' E 012°16'0 0.0
2015-Feb-22 14:33N 57°04' E 012°16'0 0.0
2015-Feb-22 13:33N 57°04' E 012°16'0 0.0
2015-Feb-22 12:27N 57°04' E 012°16'0 0.0
2015-Feb-22 11:33N 57°04' E 012°16'0 0.0
2015-Feb-22 10:33N 57°04' E 012°16'0 0.0
2015-Feb-22 09:33N 57°04' E 012°16'0 0.0
2015-Feb-22 08:27N 57°04' E 012°16'0 0.0
2015-Feb-22 07:21N 57°04' E 012°16'0 0.0
2015-Feb-22 06:33N 57°04' E 012°16'0 0.0
2015-Feb-22 05:33N 57°04' E 012°16'0 0.0
2015-Feb-22 04:27N 57°04' E 012°16'0 0.0
2015-Feb-22 02:15N 57°04' E 012°16'0 0.0
2015-Feb-22 01:27N 57°04' E 012°16'0 0.0
2015-Feb-22 00:33N 57°04' E 012°16'0 0.0
2015-Feb-21 23:27N 57°04' E 012°16'0 0.0
2015-Feb-21 22:33N 57°04' E 012°16'0 0.0
2015-Feb-21 21:27N 57°04' E 012°16'0 0.0
2015-Feb-21 20:33N 57°04' E 012°16'0 0.0
2015-Feb-21 19:33N 57°04' E 012°16'0 0.0
2015-Feb-21 18:27N 57°04' E 012°16'0 0.0
2015-Feb-21 17:21N 57°04' E 012°16'0 0.0
2015-Feb-21 16:33N 57°04' E 012°16'0 0.0
2015-Feb-21 15:21N 57°04' E 012°16'0 0.0
2015-Feb-21 14:33N 57°04' E 012°16'0 0.0
2015-Feb-21 13:27N 57°04' E 012°16'0 0.0
2015-Feb-21 12:33N 57°04' E 012°16'0 0.0
2015-Feb-21 11:33N 57°04' E 012°16'0 0.0
2015-Feb-21 10:33N 57°04' E 012°16'0 0.0
2015-Feb-21 09:33N 57°04' E 012°16'0 0.0
2015-Feb-21 08:27N 57°04' E 012°16'0 0.0
2015-Feb-21 07:15N 57°04' E 012°16'0 0.0
2015-Feb-21 06:27N 57°04' E 012°16'0 0.0
2015-Feb-21 05:33N 57°04' E 012°16'0 0.0
2015-Feb-21 04:33N 57°04' E 012°16'0 0.0
2015-Feb-21 03:33N 57°04' E 012°16'0 0.0
2015-Feb-21 02:33N 57°04' E 012°16'0 0.0
2015-Feb-21 01:21N 57°04' E 012°16'0 0.0
2015-Feb-21 00:21N 57°04' E 012°16'0 0.0
2015-Feb-20 23:33N 57°04' E 012°16'0 0.0
2015-Feb-20 22:27N 57°04' E 012°16'0 0.0
2015-Feb-20 21:33N 57°04' E 012°16'0 0.0
2015-Feb-20 20:09N 57°04' E 012°16'0 0.0
2015-Feb-20 19:27N 57°04' E 012°16'0 0.0
2015-Feb-20 18:33N 57°04' E 012°16'0 0.0
2015-Feb-20 17:33N 57°04' E 012°16'0 0.0
2015-Feb-20 16:33N 57°04' E 012°16'0 0.0
2015-Feb-20 15:09N 57°04' E 012°16'0 0.0
2015-Feb-20 14:09N 57°04' E 012°16'0 0.0
2015-Feb-20 13:33N 57°04' E 012°16'0 0.0
2015-Feb-20 12:15N 57°04' E 012°16'0 0.0
2015-Feb-20 11:33N 57°04' E 012°16'0 0.0
2015-Feb-20 10:27N 57°04' E 012°16'0 0.0
2015-Feb-20 09:33N 57°04' E 012°16'0 0.0
2015-Feb-20 08:33N 57°04' E 012°16'0 0.0
2015-Feb-20 07:33N 57°04' E 012°16'0 0.0
2015-Feb-20 06:33N 57°04' E 012°16'0 0.0
2015-Feb-20 05:15N 57°04' E 012°16'0 0.0
2015-Feb-20 04:33N 57°04' E 012°16'0 0.0
2015-Feb-20 03:33N 57°04' E 012°16'0 0.0
2015-Feb-20 02:09N 57°04' E 012°16'0 0.0
2015-Feb-20 01:27N 57°04' E 012°16'0 0.0
2015-Feb-20 00:27N 57°04' E 012°16'0 0.0
2015-Feb-19 23:33N 57°04' E 012°16'0 0.0
2015-Feb-19 22:15N 57°04' E 012°16'0 0.0
2015-Feb-19 21:33N 57°04' E 012°16'0 0.0
2015-Feb-19 20:27N 57°04' E 012°16'0 0.0
2015-Feb-19 19:21N 57°04' E 012°16'0 0.0
2015-Feb-19 18:27N 57°04' E 012°16'0 0.0
2015-Feb-19 17:33N 57°04' E 012°16'0 0.0
2015-Feb-19 16:27N 57°04' E 012°16'0 0.0
2015-Feb-19 14:21N 57°04' E 012°16'0 0.0
2015-Feb-19 13:33N 57°04' E 012°16'0 0.0
2015-Feb-19 12:33N 57°04' E 012°16'0 0.0
2015-Feb-19 11:27N 57°04' E 012°16'0 0.0
2015-Feb-19 10:33N 57°04' E 012°16'0 0.0
2015-Feb-19 09:33N 57°04' E 012°16'0 0.0
2015-Feb-19 08:27N 57°04' E 012°16'0 0.0
2015-Feb-19 07:33N 57°04' E 012°16'0 0.0
2015-Feb-19 06:33N 57°04' E 012°16'0 0.0
2015-Feb-19 05:33N 57°04' E 012°16'0 0.0
2015-Feb-19 04:33N 57°04' E 012°16'0 0.0
2015-Feb-19 03:33N 57°04' E 012°16'0 0.0
2015-Feb-19 02:27N 57°04' E 012°16'0 0.0
2015-Feb-19 01:27N 57°04' E 012°16'0 0.0
2015-Feb-19 00:33N 57°04' E 012°16'0 0.0
2015-Feb-18 23:28N 57°04' E 012°16'0 0.0
2015-Feb-18 22:16N 57°04' E 012°16'0 0.0
2015-Feb-18 21:28N 57°04' E 012°16'  

Dump ship's entire track history